sensor_id;sensor_type;location;lat;lon;timestamp;P1;durP1;ratioP1;P2;durP2;ratioP2
13267;SDS011;6702;47.068;15.458;2023-02-19T00:01:08;14.47;;;10.60;;
13267;SDS011;6702;47.068;15.458;2023-02-19T00:04:13;17.23;;;10.20;;
13267;SDS011;6702;47.068;15.458;2023-02-19T00:07:17;10.83;;;9.70;;
13267;SDS011;6702;47.068;15.458;2023-02-19T00:10:20;14.33;;;11.17;;
13267;SDS011;6702;47.068;15.458;2023-02-19T00:13:23;11.60;;;10.50;;
13267;SDS011;6702;47.068;15.458;2023-02-19T00:16:28;12.87;;;9.63;;
13267;SDS011;6702;47.068;15.458;2023-02-19T00:19:33;10.67;;;9.53;;
13267;SDS011;6702;47.068;15.458;2023-02-19T00:22:36;20.53;;;18.53;;
13267;SDS011;6702;47.068;15.458;2023-02-19T00:25:39;14.67;;;13.17;;
13267;SDS011;6702;47.068;15.458;2023-02-19T00:28:43;12.40;;;11.10;;
13267;SDS011;6702;47.068;15.458;2023-02-19T00:31:47;12.50;;;11.30;;
13267;SDS011;6702;47.068;15.458;2023-02-19T00:34:51;12.93;;;11.13;;
13267;SDS011;6702;47.068;15.458;2023-02-19T00:37:54;14.47;;;13.20;;
13267;SDS011;6702;47.068;15.458;2023-02-19T00:40:57;13.50;;;9.67;;
13267;SDS011;6702;47.068;15.458;2023-02-19T00:44:02;11.40;;;8.30;;
13267;SDS011;6702;47.068;15.458;2023-02-19T00:47:07;9.77;;;8.40;;
13267;SDS011;6702;47.068;15.458;2023-02-19T00:50:11;10.10;;;7.87;;
13267;SDS011;6702;47.068;15.458;2023-02-19T00:53:14;11.70;;;9.17;;
13267;SDS011;6702;47.068;15.458;2023-02-19T00:56:17;10.10;;;8.87;;
13267;SDS011;6702;47.068;15.458;2023-02-19T00:59:20;9.60;;;7.90;;
13267;SDS011;6702;47.068;15.458;2023-02-19T01:02:25;10.30;;;8.27;;
13267;SDS011;6702;47.068;15.458;2023-02-19T01:05:28;10.77;;;8.10;;
13267;SDS011;6702;47.068;15.458;2023-02-19T01:08:31;10.57;;;7.67;;
13267;SDS011;6702;47.068;15.458;2023-02-19T01:11:35;8.93;;;7.90;;
13267;SDS011;6702;47.068;15.458;2023-02-19T01:14:39;12.03;;;8.00;;
13267;SDS011;6702;47.068;15.458;2023-02-19T01:17:43;8.17;;;7.47;;
13267;SDS011;6702;47.068;15.458;2023-02-19T01:20:46;9.37;;;7.37;;
13267;SDS011;6702;47.068;15.458;2023-02-19T01:23:50;9.70;;;7.10;;
13267;SDS011;6702;47.068;15.458;2023-02-19T01:26:54;7.90;;;7.10;;
13267;SDS011;6702;47.068;15.458;2023-02-19T01:29:57;7.20;;;6.50;;
13267;SDS011;6702;47.068;15.458;2023-02-19T01:33:02;7.80;;;6.27;;
13267;SDS011;6702;47.068;15.458;2023-02-19T01:36:05;7.93;;;6.37;;
13267;SDS011;6702;47.068;15.458;2023-02-19T01:39:09;10.80;;;6.67;;
13267;SDS011;6702;47.068;15.458;2023-02-19T01:42:13;10.03;;;6.57;;
13267;SDS011;6702;47.068;15.458;2023-02-19T01:45:22;7.37;;;6.67;;
13267;SDS011;6702;47.068;15.458;2023-02-19T01:48:31;7.00;;;6.30;;
13267;SDS011;6702;47.068;15.458;2023-02-19T01:51:38;7.23;;;5.60;;
13267;SDS011;6702;47.068;15.458;2023-02-19T01:54:45;7.30;;;6.30;;
13267;SDS011;6702;47.068;15.458;2023-02-19T01:57:52;6.40;;;5.70;;
13267;SDS011;6702;47.068;15.458;2023-02-19T02:00:57;7.63;;;5.70;;
13267;SDS011;6702;47.068;15.458;2023-02-19T02:04:04;7.00;;;6.30;;
13267;SDS011;6702;47.068;15.458;2023-02-19T02:07:11;6.33;;;5.67;;
13267;SDS011;6702;47.068;15.458;2023-02-19T02:10:29;7.57;;;6.00;;
13267;SDS011;6702;47.068;15.458;2023-02-19T02:13:32;6.87;;;6.20;;
13267;SDS011;6702;47.068;15.458;2023-02-19T02:16:40;9.07;;;6.30;;
13267;SDS011;6702;47.068;15.458;2023-02-19T02:20:01;6.60;;;5.90;;
13267;SDS011;6702;47.068;15.458;2023-02-19T02:23:21;4.77;;;4.40;;
13267;SDS011;6702;47.068;15.458;2023-02-19T02:26:43;5.37;;;4.83;;
13267;SDS011;6702;47.068;15.458;2023-02-19T02:30:06;6.90;;;5.70;;
13267;SDS011;6702;47.068;15.458;2023-02-19T02:33:20;5.80;;;5.23;;
13267;SDS011;6702;47.068;15.458;2023-02-19T02:36:30;7.00;;;6.30;;
13267;SDS011;6702;47.068;15.458;2023-02-19T02:39:37;6.63;;;5.77;;
13267;SDS011;6702;47.068;15.458;2023-02-19T02:42:42;5.20;;;4.70;;
13267;SDS011;6702;47.068;15.458;2023-02-19T02:45:47;6.83;;;6.03;;
13267;SDS011;6702;47.068;15.458;2023-02-19T02:48:51;6.47;;;5.87;;
13267;SDS011;6702;47.068;15.458;2023-02-19T02:51:58;6.07;;;5.47;;
13267;SDS011;6702;47.068;15.458;2023-02-19T02:55:22;7.13;;;6.17;;
13267;SDS011;6702;47.068;15.458;2023-02-19T02:58:25;8.47;;;6.47;;
13267;SDS011;6702;47.068;15.458;2023-02-19T03:01:33;8.13;;;5.70;;
13267;SDS011;6702;47.068;15.458;2023-02-19T03:04:59;13.23;;;9.57;;
13267;SDS011;6702;47.068;15.458;2023-02-19T03:08:27;13.60;;;11.30;;
13267;SDS011;6702;47.068;15.458;2023-02-19T03:11:33;16.13;;;13.70;;
13267;SDS011;6702;47.068;15.458;2023-02-19T03:14:55;16.03;;;12.97;;
13267;SDS011;6702;47.068;15.458;2023-02-19T03:18:21;15.27;;;13.20;;
13267;SDS011;6702;47.068;15.458;2023-02-19T03:21:46;15.93;;;13.50;;
13267;SDS011;6702;47.068;15.458;2023-02-19T03:24:53;15.70;;;12.63;;
13267;SDS011;6702;47.068;15.458;2023-02-19T03:28:17;15.33;;;11.53;;
13267;SDS011;6702;47.068;15.458;2023-02-19T03:31:43;16.80;;;13.30;;
13267;SDS011;6702;47.068;15.458;2023-02-19T03:34:50;13.43;;;10.50;;
13267;SDS011;6702;47.068;15.458;2023-02-19T03:37:57;12.07;;;9.67;;
13267;SDS011;6702;47.068;15.458;2023-02-19T03:41:06;11.07;;;8.77;;
13267;SDS011;6702;47.068;15.458;2023-02-19T03:44:15;11.27;;;8.13;;
13267;SDS011;6702;47.068;15.458;2023-02-19T03:47:26;9.90;;;8.20;;
13267;SDS011;6702;47.068;15.458;2023-02-19T03:50:34;10.27;;;8.27;;
13267;SDS011;6702;47.068;15.458;2023-02-19T03:53:46;13.23;;;7.67;;
13267;SDS011;6702;47.068;15.458;2023-02-19T03:56:57;7.97;;;7.17;;
13267;SDS011;6702;47.068;15.458;2023-02-19T04:00:07;8.00;;;7.20;;
13267;SDS011;6702;47.068;15.458;2023-02-19T04:03:16;9.77;;;8.10;;
13267;SDS011;6702;47.068;15.458;2023-02-19T04:06:24;9.10;;;7.73;;
13267;SDS011;6702;47.068;15.458;2023-02-19T04:09:29;15.17;;;8.67;;
13267;SDS011;6702;47.068;15.458;2023-02-19T04:12:38;12.07;;;9.10;;
13267;SDS011;6702;47.068;15.458;2023-02-19T04:15:45;11.10;;;9.33;;
13267;SDS011;6702;47.068;15.458;2023-02-19T04:18:51;10.60;;;8.67;;
13267;SDS011;6702;47.068;15.458;2023-02-19T04:22:00;11.43;;;9.27;;
13267;SDS011;6702;47.068;15.458;2023-02-19T04:25:06;11.77;;;8.10;;
13267;SDS011;6702;47.068;15.458;2023-02-19T04:28:10;13.50;;;9.70;;
13267;SDS011;6702;47.068;15.458;2023-02-19T04:31:16;13.10;;;9.73;;
13267;SDS011;6702;47.068;15.458;2023-02-19T04:34:20;13.27;;;8.17;;
13267;SDS011;6702;47.068;15.458;2023-02-19T04:37:24;9.77;;;8.20;;
13267;SDS011;6702;47.068;15.458;2023-02-19T04:40:28;11.13;;;7.80;;
13267;SDS011;6702;47.068;15.458;2023-02-19T04:43:31;8.37;;;7.53;;
13267;SDS011;6702;47.068;15.458;2023-02-19T04:46:34;6.87;;;6.10;;
13267;SDS011;6702;47.068;15.458;2023-02-19T04:49:37;7.00;;;6.30;;
13267;SDS011;6702;47.068;15.458;2023-02-19T04:52:42;6.30;;;5.47;;
13267;SDS011;6702;47.068;15.458;2023-02-19T04:55:45;9.47;;;7.30;;
13267;SDS011;6702;47.068;15.458;2023-02-19T04:58:49;7.87;;;6.47;;
13267;SDS011;6702;47.068;15.458;2023-02-19T05:01:52;6.77;;;6.07;;
13267;SDS011;6702;47.068;15.458;2023-02-19T05:04:57;7.93;;;7.13;;
13267;SDS011;6702;47.068;15.458;2023-02-19T05:08:02;8.50;;;6.97;;
13267;SDS011;6702;47.068;15.458;2023-02-19T05:11:06;9.07;;;6.17;;
13267;SDS011;6702;47.068;15.458;2023-02-19T05:14:11;7.43;;;5.57;;
13267;SDS011;6702;47.068;15.458;2023-02-19T05:17:15;6.83;;;5.77;;
13267;SDS011;6702;47.068;15.458;2023-02-19T05:20:18;10.27;;;7.10;;
13267;SDS011;6702;47.068;15.458;2023-02-19T05:23:25;8.27;;;6.03;;
13267;SDS011;6702;47.068;15.458;2023-02-19T05:26:28;8.33;;;6.43;;
13267;SDS011;6702;47.068;15.458;2023-02-19T05:29:32;7.50;;;6.10;;
13267;SDS011;6702;47.068;15.458;2023-02-19T05:32:35;5.70;;;5.10;;
13267;SDS011;6702;47.068;15.458;2023-02-19T05:35:40;7.60;;;6.83;;
13267;SDS011;6702;47.068;15.458;2023-02-19T05:38:45;7.43;;;6.60;;
13267;SDS011;6702;47.068;15.458;2023-02-19T05:41:49;7.30;;;6.10;;
13267;SDS011;6702;47.068;15.458;2023-02-19T05:44:52;6.97;;;5.80;;
13267;SDS011;6702;47.068;15.458;2023-02-19T05:47:55;9.20;;;6.27;;
13267;SDS011;6702;47.068;15.458;2023-02-19T05:51:02;6.83;;;6.20;;
13267;SDS011;6702;47.068;15.458;2023-02-19T05:54:08;7.20;;;5.70;;
13267;SDS011;6702;47.068;15.458;2023-02-19T05:57:11;8.77;;;7.37;;
13267;SDS011;6702;47.068;15.458;2023-02-19T06:00:15;8.00;;;6.60;;
13267;SDS011;6702;47.068;15.458;2023-02-19T06:03:20;8.13;;;7.27;;
13267;SDS011;6702;47.068;15.458;2023-02-19T06:06:24;7.43;;;6.50;;
13267;SDS011;6702;47.068;15.458;2023-02-19T06:09:29;8.10;;;6.53;;
13267;SDS011;6702;47.068;15.458;2023-02-19T06:12:33;7.20;;;6.40;;
13267;SDS011;6702;47.068;15.458;2023-02-19T06:15:36;12.83;;;6.70;;
13267;SDS011;6702;47.068;15.458;2023-02-19T06:18:40;7.53;;;6.43;;
13267;SDS011;6702;47.068;15.458;2023-02-19T06:21:43;11.30;;;6.93;;
13267;SDS011;6702;47.068;15.458;2023-02-19T06:24:48;8.87;;;6.93;;
13267;SDS011;6702;47.068;15.458;2023-02-19T06:27:51;8.90;;;8.03;;
13267;SDS011;6702;47.068;15.458;2023-02-19T06:30:54;11.60;;;7.30;;
13267;SDS011;6702;47.068;15.458;2023-02-19T06:34:02;7.83;;;5.97;;
13267;SDS011;6702;47.068;15.458;2023-02-19T06:37:05;7.37;;;6.33;;
13267;SDS011;6702;47.068;15.458;2023-02-19T06:40:10;10.40;;;6.27;;
13267;SDS011;6702;47.068;15.458;2023-02-19T06:43:13;7.70;;;5.97;;
13267;SDS011;6702;47.068;15.458;2023-02-19T06:46:16;7.57;;;6.13;;
13267;SDS011;6702;47.068;15.458;2023-02-19T06:49:20;7.77;;;6.10;;
13267;SDS011;6702;47.068;15.458;2023-02-19T06:52:24;7.43;;;5.50;;
13267;SDS011;6702;47.068;15.458;2023-02-19T06:55:28;6.80;;;6.10;;
13267;SDS011;6702;47.068;15.458;2023-02-19T06:58:32;8.07;;;6.53;;
13267;SDS011;6702;47.068;15.458;2023-02-19T07:01:36;24.20;;;17.40;;
13267;SDS011;6702;47.068;15.458;2023-02-19T07:04:40;30.83;;;16.13;;
13267;SDS011;6702;47.068;15.458;2023-02-19T07:07:44;6.73;;;6.10;;
13267;SDS011;6702;47.068;15.458;2023-02-19T07:10:54;6.70;;;6.00;;
13267;SDS011;6702;47.068;15.458;2023-02-19T07:13:58;6.63;;;6.00;;
13267;SDS011;6702;47.068;15.458;2023-02-19T07:17:03;11.80;;;7.03;;
13267;SDS011;6702;47.068;15.458;2023-02-19T07:20:06;9.13;;;5.97;;
13267;SDS011;6702;47.068;15.458;2023-02-19T07:23:10;7.63;;;5.90;;
13267;SDS011;6702;47.068;15.458;2023-02-19T07:26:16;9.57;;;7.60;;
13267;SDS011;6702;47.068;15.458;2023-02-19T07:29:20;9.20;;;6.63;;
13267;SDS011;6702;47.068;15.458;2023-02-19T07:32:23;6.67;;;5.90;;
13267;SDS011;6702;47.068;15.458;2023-02-19T07:35:27;8.27;;;6.47;;
13267;SDS011;6702;47.068;15.458;2023-02-19T07:38:30;9.47;;;6.90;;
13267;SDS011;6702;47.068;15.458;2023-02-19T07:41:35;8.53;;;7.63;;
13267;SDS011;6702;47.068;15.458;2023-02-19T07:44:38;11.73;;;7.13;;
13267;SDS011;6702;47.068;15.458;2023-02-19T07:47:41;14.10;;;9.63;;
13267;SDS011;6702;47.068;15.458;2023-02-19T07:50:49;9.43;;;7.70;;
13267;SDS011;6702;47.068;15.458;2023-02-19T07:53:53;11.53;;;8.43;;
13267;SDS011;6702;47.068;15.458;2023-02-19T07:56:57;11.50;;;8.20;;
13267;SDS011;6702;47.068;15.458;2023-02-19T08:00:01;7.53;;;6.40;;
13267;SDS011;6702;47.068;15.458;2023-02-19T08:03:04;9.73;;;8.80;;
13267;SDS011;6702;47.068;15.458;2023-02-19T08:06:08;18.40;;;12.33;;
13267;SDS011;6702;47.068;15.458;2023-02-19T08:09:12;13.60;;;12.20;;
13267;SDS011;6702;47.068;15.458;2023-02-19T08:12:17;12.70;;;11.40;;
13267;SDS011;6702;47.068;15.458;2023-02-19T08:15:38;18.53;;;12.90;;
13267;SDS011;6702;47.068;15.458;2023-02-19T08:18:41;14.67;;;12.13;;
13267;SDS011;6702;47.068;15.458;2023-02-19T08:21:45;14.93;;;12.60;;
13267;SDS011;6702;47.068;15.458;2023-02-19T08:24:48;14.70;;;11.57;;
13267;SDS011;6702;47.068;15.458;2023-02-19T08:27:52;13.87;;;12.23;;
13267;SDS011;6702;47.068;15.458;2023-02-19T08:30:57;16.77;;;12.80;;
13267;SDS011;6702;47.068;15.458;2023-02-19T08:34:02;14.80;;;13.10;;
13267;SDS011;6702;47.068;15.458;2023-02-19T08:37:06;16.30;;;14.60;;
13267;SDS011;6702;47.068;15.458;2023-02-19T08:40:09;18.13;;;16.20;;
13267;SDS011;6702;47.068;15.458;2023-02-19T08:43:15;18.37;;;16.50;;
13267;SDS011;6702;47.068;15.458;2023-02-19T08:46:19;19.50;;;15.97;;
13267;SDS011;6702;47.068;15.458;2023-02-19T08:49:24;20.10;;;16.50;;
13267;SDS011;6702;47.068;15.458;2023-02-19T08:52:28;17.87;;;15.97;;
13267;SDS011;6702;47.068;15.458;2023-02-19T08:55:31;18.57;;;16.60;;
13267;SDS011;6702;47.068;15.458;2023-02-19T08:58:36;18.90;;;15.77;;
13267;SDS011;6702;47.068;15.458;2023-02-19T09:01:39;18.17;;;16.30;;
13267;SDS011;6702;47.068;15.458;2023-02-19T09:04:43;16.30;;;14.50;;
13267;SDS011;6702;47.068;15.458;2023-02-19T09:07:46;15.50;;;12.30;;
13267;SDS011;6702;47.068;15.458;2023-02-19T09:10:56;14.90;;;13.43;;
13267;SDS011;6702;47.068;15.458;2023-02-19T09:14:01;12.70;;;11.50;;
13267;SDS011;6702;47.068;15.458;2023-02-19T09:17:07;14.20;;;12.70;;
13267;SDS011;6702;47.068;15.458;2023-02-19T09:20:11;17.23;;;15.33;;
13267;SDS011;6702;47.068;15.458;2023-02-19T09:23:14;17.03;;;15.67;;
13267;SDS011;6702;47.068;15.458;2023-02-19T09:26:17;18.17;;;16.47;;
13267;SDS011;6702;47.068;15.458;2023-02-19T09:29:22;18.13;;;16.55;;
13267;SDS011;6702;47.068;15.458;2023-02-19T09:32:28;17.70;;;16.25;;
13267;SDS011;6702;47.068;15.458;2023-02-19T09:35:32;19.50;;;17.52;;
13267;SDS011;6702;47.068;15.458;2023-02-19T09:38:35;21.65;;;19.80;;
13267;SDS011;6702;47.068;15.458;2023-02-19T09:41:41;20.10;;;18.40;;
13267;SDS011;6702;47.068;15.458;2023-02-19T09:44:48;21.23;;;19.33;;
13267;SDS011;6702;47.068;15.458;2023-02-19T09:47:53;21.10;;;19.00;;
13267;SDS011;6702;47.068;15.458;2023-02-19T09:50:59;19.63;;;17.83;;
13267;SDS011;6702;47.068;15.458;2023-02-19T09:54:05;19.87;;;17.97;;
13267;SDS011;6702;47.068;15.458;2023-02-19T09:57:15;18.37;;;16.83;;
13267;SDS011;6702;47.068;15.458;2023-02-19T10:00:23;18.85;;;17.35;;
13267;SDS011;6702;47.068;15.458;2023-02-19T10:03:29;18.52;;;16.95;;
13267;SDS011;6702;47.068;15.458;2023-02-19T10:06:36;18.65;;;17.15;;
13267;SDS011;6702;47.068;15.458;2023-02-19T10:09:40;17.15;;;15.82;;
13267;SDS011;6702;47.068;15.458;2023-02-19T10:12:47;18.65;;;17.25;;
13267;SDS011;6702;47.068;15.458;2023-02-19T10:15:54;19.20;;;17.80;;
13267;SDS011;6702;47.068;15.458;2023-02-19T10:18:59;19.63;;;17.88;;
13267;SDS011;6702;47.068;15.458;2023-02-19T10:22:03;16.67;;;15.45;;
13267;SDS011;6702;47.068;15.458;2023-02-19T10:25:07;16.45;;;15.35;;
13267;SDS011;6702;47.068;15.458;2023-02-19T10:28:16;16.75;;;15.60;;
13267;SDS011;6702;47.068;15.458;2023-02-19T10:31:24;17.55;;;16.25;;
13267;SDS011;6702;47.068;15.458;2023-02-19T10:34:28;18.75;;;17.23;;
13267;SDS011;6702;47.068;15.458;2023-02-19T10:37:31;17.48;;;16.17;;
13267;SDS011;6702;47.068;15.458;2023-02-19T10:40:35;18.90;;;17.35;;
13267;SDS011;6702;47.068;15.458;2023-02-19T10:43:49;18.10;;;16.67;;
13267;SDS011;6702;47.068;15.458;2023-02-19T10:46:57;16.45;;;15.25;;
13267;SDS011;6702;47.068;15.458;2023-02-19T10:50:02;17.40;;;16.20;;
13267;SDS011;6702;47.068;15.458;2023-02-19T10:53:07;16.25;;;15.15;;
13267;SDS011;6702;47.068;15.458;2023-02-19T10:56:24;15.10;;;13.95;;
13267;SDS011;6702;47.068;15.458;2023-02-19T10:59:29;16.60;;;15.50;;
13267;SDS011;6702;47.068;15.458;2023-02-19T11:02:34;16.67;;;15.48;;
13267;SDS011;6702;47.068;15.458;2023-02-19T11:05:39;18.45;;;17.08;;
13267;SDS011;6702;47.068;15.458;2023-02-19T11:08:57;16.77;;;15.48;;
13267;SDS011;6702;47.068;15.458;2023-02-19T11:12:02;16.38;;;15.18;;
13267;SDS011;6702;47.068;15.458;2023-02-19T11:15:16;16.95;;;15.65;;
13267;SDS011;6702;47.068;15.458;2023-02-19T11:18:26;16.52;;;15.25;;
13267;SDS011;6702;47.068;15.458;2023-02-19T11:21:30;16.40;;;15.20;;
13267;SDS011;6702;47.068;15.458;2023-02-19T11:24:35;14.68;;;13.57;;
13267;SDS011;6702;47.068;15.458;2023-02-19T11:27:52;14.02;;;13.02;;
13267;SDS011;6702;47.068;15.458;2023-02-19T11:31:12;14.30;;;13.23;;
13267;SDS011;6702;47.068;15.458;2023-02-19T11:34:23;11.85;;;10.95;;
13267;SDS011;6702;47.068;15.458;2023-02-19T11:37:31;12.55;;;11.35;;
13267;SDS011;6702;47.068;15.458;2023-02-19T11:40:38;10.88;;;9.93;;
13267;SDS011;6702;47.068;15.458;2023-02-19T11:43:47;8.80;;;8.15;;
13267;SDS011;6702;47.068;15.458;2023-02-19T11:47:04;6.38;;;5.80;;
13267;SDS011;6702;47.068;15.458;2023-02-19T11:50:42;2.53;;;0.80;;
13267;SDS011;6702;47.068;15.458;2023-02-19T11:53:57;2.20;;;0.60;;
13267;SDS011;6702;47.068;15.458;2023-02-19T11:57:12;1.88;;;0.45;;
13267;SDS011;6702;47.068;15.458;2023-02-19T12:00:26;2.53;;;0.70;;
13267;SDS011;6702;47.068;15.458;2023-02-19T12:03:42;1.33;;;0.50;;
13267;SDS011;6702;47.068;15.458;2023-02-19T12:07:00;1.95;;;1.85;;
13267;SDS011;6702;47.068;15.458;2023-02-19T12:10:17;5.30;;;4.90;;
13267;SDS011;6702;47.068;15.458;2023-02-19T12:13:27;5.78;;;5.32;;
13267;SDS011;6702;47.068;15.458;2023-02-19T12:16:40;1.90;;;1.70;;
13267;SDS011;6702;47.068;15.458;2023-02-19T12:19:55;2.08;;;1.10;;
13267;SDS011;6702;47.068;15.458;2023-02-19T12:23:20;1.17;;;0.50;;
13267;SDS011;6702;47.068;15.458;2023-02-19T12:26:56;1.75;;;0.40;;
13267;SDS011;6702;47.068;15.458;2023-02-19T12:30:18;4.05;;;0.65;;
13267;SDS011;6702;47.068;15.458;2023-02-19T12:37:09;2.15;;;0.40;;
13267;SDS011;6702;47.068;15.458;2023-02-19T12:40:27;4.20;;;0.40;;
13267;SDS011;6702;47.068;15.458;2023-02-19T12:43:40;1.50;;;0.28;;
13267;SDS011;6702;47.068;15.458;2023-02-19T12:46:55;6.10;;;1.10;;
13267;SDS011;6702;47.068;15.458;2023-02-19T12:50:07;2.83;;;0.93;;
13267;SDS011;6702;47.068;15.458;2023-02-19T12:53:24;1.27;;;0.73;;
13267;SDS011;6702;47.068;15.458;2023-02-19T12:56:42;3.00;;;2.70;;
13267;SDS011;6702;47.068;15.458;2023-02-19T12:59:51;2.88;;;1.00;;
13267;SDS011;6702;47.068;15.458;2023-02-19T13:03:01;1.00;;;0.57;;
13267;SDS011;6702;47.068;15.458;2023-02-19T13:06:09;1.52;;;0.75;;
13267;SDS011;6702;47.068;15.458;2023-02-19T13:09:22;4.43;;;3.00;;
13267;SDS011;6702;47.068;15.458;2023-02-19T13:12:32;0.75;;;0.60;;
13267;SDS011;6702;47.068;15.458;2023-02-19T13:15:40;2.35;;;0.60;;
13267;SDS011;6702;47.068;15.458;2023-02-19T13:18:47;1.77;;;0.40;;
13267;SDS011;6702;47.068;15.458;2023-02-19T13:21:55;1.55;;;0.75;;
13267;SDS011;6702;47.068;15.458;2023-02-19T13:25:23;2.38;;;0.70;;
13267;SDS011;6702;47.068;15.458;2023-02-19T13:28:45;1.25;;;0.40;;
13267;SDS011;6702;47.068;15.458;2023-02-19T13:32:09;0.70;;;0.40;;
13267;SDS011;6702;47.068;15.458;2023-02-19T13:35:51;1.23;;;0.30;;
13267;SDS011;6702;47.068;15.458;2023-02-19T13:39:06;1.25;;;0.60;;
13267;SDS011;6702;47.068;15.458;2023-02-19T13:46:01;0.80;;;0.38;;
13267;SDS011;6702;47.068;15.458;2023-02-19T13:52:42;1.67;;;0.38;;
13267;SDS011;6702;47.068;15.458;2023-02-19T13:55:50;1.70;;;0.50;;
13267;SDS011;6702;47.068;15.458;2023-02-19T13:58:55;1.00;;;0.35;;
13267;SDS011;6702;47.068;15.458;2023-02-19T14:02:09;3.90;;;0.63;;
13267;SDS011;6702;47.068;15.458;2023-02-19T14:05:17;1.10;;;0.50;;
13267;SDS011;6702;47.068;15.458;2023-02-19T14:09:01;2.50;;;0.50;;
13267;SDS011;6702;47.068;15.458;2023-02-19T14:12:15;1.00;;;0.60;;
13267;SDS011;6702;47.068;15.458;2023-02-19T14:15:39;0.70;;;0.40;;
13267;SDS011;6702;47.068;15.458;2023-02-19T14:18:47;2.40;;;0.67;;
13267;SDS011;6702;47.068;15.458;2023-02-19T14:21:53;1.07;;;0.43;;
13267;SDS011;6702;47.068;15.458;2023-02-19T14:24:57;2.03;;;1.00;;
13267;SDS011;6702;47.068;15.458;2023-02-19T14:28:03;0.70;;;0.33;;
13267;SDS011;6702;47.068;15.458;2023-02-19T14:31:26;1.60;;;0.50;;
13267;SDS011;6702;47.068;15.458;2023-02-19T14:34:33;3.07;;;0.50;;
13267;SDS011;6702;47.068;15.458;2023-02-19T14:37:38;2.10;;;0.30;;
13267;SDS011;6702;47.068;15.458;2023-02-19T14:40:42;1.13;;;0.60;;
13267;SDS011;6702;47.068;15.458;2023-02-19T14:43:48;1.10;;;0.60;;
13267;SDS011;6702;47.068;15.458;2023-02-19T14:46:56;1.90;;;0.57;;
13267;SDS011;6702;47.068;15.458;2023-02-19T14:50:07;1.83;;;0.40;;
13267;SDS011;6702;47.068;15.458;2023-02-19T14:53:15;0.50;;;0.30;;
13267;SDS011;6702;47.068;15.458;2023-02-19T14:56:23;2.30;;;0.40;;
13267;SDS011;6702;47.068;15.458;2023-02-19T14:59:30;2.90;;;0.40;;
13267;SDS011;6702;47.068;15.458;2023-02-19T15:02:40;2.10;;;0.30;;
13267;SDS011;6702;47.068;15.458;2023-02-19T15:05:52;0.87;;;0.30;;
13267;SDS011;6702;47.068;15.458;2023-02-19T15:09:02;7.37;;;0.70;;
13267;SDS011;6702;47.068;15.458;2023-02-19T15:12:12;0.60;;;0.30;;
13267;SDS011;6702;47.068;15.458;2023-02-19T15:15:21;0.60;;;0.40;;
13267;SDS011;6702;47.068;15.458;2023-02-19T15:18:30;1.03;;;0.50;;
13267;SDS011;6702;47.068;15.458;2023-02-19T15:21:40;0.70;;;0.60;;
13267;SDS011;6702;47.068;15.458;2023-02-19T15:24:48;0.50;;;0.33;;
13267;SDS011;6702;47.068;15.458;2023-02-19T15:27:52;0.70;;;0.40;;
13267;SDS011;6702;47.068;15.458;2023-02-19T15:31:05;0.50;;;0.40;;
13267;SDS011;6702;47.068;15.458;2023-02-19T15:34:19;0.77;;;0.73;;
13267;SDS011;6702;47.068;15.458;2023-02-19T15:37:33;1.37;;;0.60;;
13267;SDS011;6702;47.068;15.458;2023-02-19T15:40:39;1.77;;;0.60;;
13267;SDS011;6702;47.068;15.458;2023-02-19T15:43:48;1.20;;;0.80;;
13267;SDS011;6702;47.068;15.458;2023-02-19T15:46:58;1.60;;;0.90;;
13267;SDS011;6702;47.068;15.458;2023-02-19T15:50:12;0.70;;;0.57;;
13267;SDS011;6702;47.068;15.458;2023-02-19T15:53:20;0.97;;;0.60;;
13267;SDS011;6702;47.068;15.458;2023-02-19T15:56:28;0.50;;;0.40;;
13267;SDS011;6702;47.068;15.458;2023-02-19T15:59:36;0.63;;;0.40;;
13267;SDS011;6702;47.068;15.458;2023-02-19T16:02:44;0.50;;;0.40;;
13267;SDS011;6702;47.068;15.458;2023-02-19T16:05:56;0.80;;;0.43;;
13267;SDS011;6702;47.068;15.458;2023-02-19T16:09:04;0.60;;;0.37;;
13267;SDS011;6702;47.068;15.458;2023-02-19T16:12:23;0.70;;;0.60;;
13267;SDS011;6702;47.068;15.458;2023-02-19T16:15:31;0.70;;;0.67;;
13267;SDS011;6702;47.068;15.458;2023-02-19T16:18:36;0.77;;;0.70;;
13267;SDS011;6702;47.068;15.458;2023-02-19T16:21:41;0.50;;;0.40;;
13267;SDS011;6702;47.068;15.458;2023-02-19T16:24:49;0.70;;;0.50;;
13267;SDS011;6702;47.068;15.458;2023-02-19T16:28:07;0.70;;;0.50;;
13267;SDS011;6702;47.068;15.458;2023-02-19T16:31:13;0.60;;;0.57;;
13267;SDS011;6702;47.068;15.458;2023-02-19T16:34:23;0.60;;;0.57;;
13267;SDS011;6702;47.068;15.458;2023-02-19T16:37:37;0.73;;;0.60;;
13267;SDS011;6702;47.068;15.458;2023-02-19T16:41:03;0.60;;;0.40;;
13267;SDS011;6702;47.068;15.458;2023-02-19T16:44:28;0.70;;;0.70;;
13267;SDS011;6702;47.068;15.458;2023-02-19T16:47:37;1.33;;;0.60;;
13267;SDS011;6702;47.068;15.458;2023-02-19T16:50:49;0.70;;;0.50;;
13267;SDS011;6702;47.068;15.458;2023-02-19T16:53:54;0.53;;;0.53;;
13267;SDS011;6702;47.068;15.458;2023-02-19T16:57:01;3.73;;;0.80;;
13267;SDS011;6702;47.068;15.458;2023-02-19T17:00:07;1.10;;;1.10;;
13267;SDS011;6702;47.068;15.458;2023-02-19T17:03:18;1.23;;;0.50;;
13267;SDS011;6702;47.068;15.458;2023-02-19T17:06:28;1.20;;;0.60;;
13267;SDS011;6702;47.068;15.458;2023-02-19T17:09:35;0.83;;;0.60;;
13267;SDS011;6702;47.068;15.458;2023-02-19T17:12:42;0.57;;;0.57;;
13267;SDS011;6702;47.068;15.458;2023-02-19T17:15:49;2.80;;;0.60;;
13267;SDS011;6702;47.068;15.458;2023-02-19T17:18:54;0.50;;;0.50;;
13267;SDS011;6702;47.068;15.458;2023-02-19T17:22:00;0.83;;;0.70;;
13267;SDS011;6702;47.068;15.458;2023-02-19T17:25:05;0.93;;;0.57;;
13267;SDS011;6702;47.068;15.458;2023-02-19T17:28:13;2.77;;;0.80;;
13267;SDS011;6702;47.068;15.458;2023-02-19T17:31:18;0.70;;;0.70;;
13267;SDS011;6702;47.068;15.458;2023-02-19T17:34:26;1.20;;;0.93;;
13267;SDS011;6702;47.068;15.458;2023-02-19T17:37:33;0.63;;;0.50;;
13267;SDS011;6702;47.068;15.458;2023-02-19T17:40:39;1.30;;;0.40;;
13267;SDS011;6702;47.068;15.458;2023-02-19T17:43:45;0.77;;;0.70;;
13267;SDS011;6702;47.068;15.458;2023-02-19T17:46:51;0.80;;;0.67;;
13267;SDS011;6702;47.068;15.458;2023-02-19T17:49:57;0.70;;;0.50;;
13267;SDS011;6702;47.068;15.458;2023-02-19T17:53:02;1.30;;;0.67;;
13267;SDS011;6702;47.068;15.458;2023-02-19T17:56:07;0.70;;;0.50;;
13267;SDS011;6702;47.068;15.458;2023-02-19T17:59:20;0.97;;;0.70;;
13267;SDS011;6702;47.068;15.458;2023-02-19T18:02:26;0.80;;;0.80;;
13267;SDS011;6702;47.068;15.458;2023-02-19T18:05:31;0.60;;;0.50;;
13267;SDS011;6702;47.068;15.458;2023-02-19T18:08:37;1.33;;;0.77;;
13267;SDS011;6702;47.068;15.458;2023-02-19T18:11:44;1.00;;;0.70;;
13267;SDS011;6702;47.068;15.458;2023-02-19T18:14:57;0.70;;;0.70;;
13267;SDS011;6702;47.068;15.458;2023-02-19T18:18:03;0.93;;;0.60;;
13267;SDS011;6702;47.068;15.458;2023-02-19T18:21:07;0.90;;;0.90;;
13267;SDS011;6702;47.068;15.458;2023-02-19T18:24:14;4.43;;;0.87;;
13267;SDS011;6702;47.068;15.458;2023-02-19T18:27:19;0.60;;;0.60;;
13267;SDS011;6702;47.068;15.458;2023-02-19T18:30:26;8.23;;;0.73;;
13267;SDS011;6702;47.068;15.458;2023-02-19T18:33:32;3.20;;;0.60;;
13267;SDS011;6702;47.068;15.458;2023-02-19T18:36:37;0.80;;;0.80;;
13267;SDS011;6702;47.068;15.458;2023-02-19T18:39:41;0.97;;;0.80;;
13267;SDS011;6702;47.068;15.458;2023-02-19T18:42:48;1.00;;;0.60;;
13267;SDS011;6702;47.068;15.458;2023-02-19T18:45:54;0.83;;;0.70;;
13267;SDS011;6702;47.068;15.458;2023-02-19T18:48:59;1.03;;;0.50;;
13267;SDS011;6702;47.068;15.458;2023-02-19T18:52:04;0.53;;;0.50;;
13267;SDS011;6702;47.068;15.458;2023-02-19T18:55:09;0.90;;;0.77;;